Time;durP1;ratioP1;P1;durP2;ratioP2;P2;SDS_P1;SDS_P2;PMS_P1;PMS_P2;Temp;Humidity;BMP_temperature;BMP_pressure;BME280_temperature;BME280_humidity;BME280_pressure;Samples;Min_cycle;Max_cycle;Signal;HPM_P1;HPM_P2
2023/09/21 00:01:25;;;;;;;4.73;3.50;;;;;;;17.21;96.57;97246.53;5164731;22;20930;-91
2023/09/21 00:03:29;;;;;;;5.90;4.17;;;;;;;17.20;97.64;97244.91;5138087;23;21135;-90
2023/09/21 00:05:32;;;;;;;5.50;4.20;;;;;;;17.20;96.12;97238.75;5163910;23;20649;-87
2023/09/21 00:07:36;;;;;;;5.27;3.83;;;;;;;17.15;95.96;97246.34;5163775;22;20584;-87
2023/09/21 00:09:39;;;;;;;5.80;3.97;;;;;;;17.13;97.37;97238.63;5135897;23;20665;-87
2023/09/21 00:11:43;;;;;;;4.97;3.97;;;;;;;17.10;97.32;97243.41;5138387;23;20578;-87
2023/09/21 00:13:46;;;;;;;6.97;4.50;;;;;;;17.09;95.89;97234.69;5137748;23;20580;-87
2023/09/21 00:15:49;;;;;;;4.30;3.70;;;;;;;17.06;97.13;97234.16;5163152;23;20612;-87
2023/09/21 00:17:53;;;;;;;5.23;3.87;;;;;;;17.06;96.66;97231.53;5139170;23;20570;-88
2023/09/21 00:19:57;;;;;;;5.20;4.20;;;;;;;17.04;96.29;97230.88;5138626;23;20906;-88
2023/09/21 00:22:00;;;;;;;5.73;3.90;;;;;;;17.01;96.83;97225.94;5163464;23;20604;-87
2023/09/21 00:24:15;;;;;;;4.73;4.23;;;;;;;16.99;97.10;97230.56;5138613;23;20578;-87
2023/09/21 00:26:19;;;;;;;5.63;4.03;;;;;;;16.96;97.06;97222.16;5164334;22;20573;-88
2023/09/21 00:28:22;;;;;;;5.00;4.03;;;;;;;16.94;96.29;97224.13;5138598;23;21239;-87
2023/09/21 00:30:25;;;;;;;4.63;4.03;;;;;;;16.95;96.48;97223.97;5138476;23;20668;-87
2023/09/21 00:32:29;;;;;;;5.50;3.90;;;;;;;16.94;97.68;97213.59;5138185;23;20639;-88
2023/09/21 00:34:34;;;;;;;5.10;4.03;;;;;;;16.92;96.21;97212.94;5164070;23;20604;-88
2023/09/21 00:36:42;;;;;;;4.73;3.67;;;;;;;16.89;96.20;97208.00;5164044;23;20581;-88
2023/09/21 00:38:46;;;;;;;3.97;3.57;;;;;;;16.86;96.89;97203.88;5138819;23;20995;-87
2023/09/21 00:40:51;;;;;;;4.10;3.60;;;;;;;16.89;96.98;97203.53;5163713;23;20630;-88
2023/09/21 00:42:56;;;;;;;5.60;3.80;;;;;;;16.88;97.34;97201.06;5163608;23;20608;-87
2023/09/21 00:44:58;;;;;;;4.63;3.97;;;;;;;16.84;97.58;97203.22;5163896;23;20558;-88
2023/09/21 00:47:04;;;;;;;4.60;3.47;;;;;;;16.81;95.63;97200.91;5138692;23;20583;-87
2023/09/21 00:49:07;;;;;;;4.30;3.50;;;;;;;16.81;97.01;97195.66;5163653;23;20573;-88
2023/09/21 00:51:12;;;;;;;5.33;3.53;;;;;;;16.80;96.87;97199.25;5138232;23;20585;-87
2023/09/21 00:53:16;;;;;;;5.03;3.60;;;;;;;16.78;97.19;97195.97;5138851;23;20907;-87
2023/09/21 00:55:23;;;;;;;5.63;3.83;;;;;;;16.77;96.51;97196.97;5163400;23;20619;-87
2023/09/21 00:57:26;;;;;;;4.57;4.10;;;;;;;16.76;97.77;97191.84;5163692;23;20584;-87
2023/09/21 00:59:35;;;;;;;5.33;3.60;;;;;;;16.74;97.62;97197.28;5163426;23;20588;-87
2023/09/21 01:01:38;;;;;;;4.93;4.00;;;;;;;16.71;97.70;97188.91;5137083;23;21056;-87
2023/09/21 01:03:43;;;;;;;7.20;4.03;;;;;;;16.67;97.88;97201.59;5138525;23;20573;-88
2023/09/21 01:05:49;;;;;;;5.03;3.80;;;;;;;16.67;97.91;97193.69;5164980;22;20691;-87
2023/09/21 01:07:56;;;;;;;5.87;4.30;;;;;;;16.65;96.64;97195.63;5163790;23;20580;-88
2023/09/21 01:09:59;;;;;;;6.97;4.30;;;;;;;16.64;97.09;97195.78;5138700;23;20577;-87
2023/09/21 01:12:05;;;;;;;4.57;3.80;;;;;;;16.64;97.66;97193.16;5163603;23;20546;-88
2023/09/21 01:14:08;;;;;;;7.30;3.60;;;;;;;16.63;96.21;97192.34;5138600;23;20588;-87
2023/09/21 01:16:13;;;;;;;5.30;4.10;;;;;;;16.61;98.18;97193.50;5135347;23;21126;-87
2023/09/21 01:18:17;;;;;;;5.00;4.10;;;;;;;16.58;96.56;97192.03;5162007;23;20609;-87
2023/09/21 01:20:22;;;;;;;5.60;4.07;;;;;;;16.58;98.31;97183.28;5162731;23;20578;-87
2023/09/21 01:22:26;;;;;;;5.37;4.33;;;;;;;16.57;98.28;97182.47;5162155;23;20609;-87
2023/09/21 01:24:31;;;;;;;6.10;4.73;;;;;;;16.56;98.19;97186.06;5163649;23;20682;-87
2023/09/21 01:26:34;;;;;;;7.20;4.50;;;;;;;16.55;98.49;97183.59;5138855;23;20588;-87
2023/09/21 01:28:37;;;;;;;5.20;4.13;;;;;;;16.55;98.30;97183.59;5164236;23;20658;-88
2023/09/21 01:30:40;;;;;;;6.33;4.37;;;;;;;16.56;96.80;97185.25;5163844;23;20584;-88
2023/09/21 01:32:43;;;;;;;6.03;4.30;;;;;;;16.55;97.96;97187.09;5164811;22;20570;-88
2023/09/21 01:34:46;;;;;;;6.30;4.97;;;;;;;16.55;97.49;97181.81;5163682;23;20577;-87
2023/09/21 01:36:54;;;;;;;5.13;3.77;;;;;;;16.52;98.57;97182.16;5138705;23;21172;-88
2023/09/21 01:38:58;;;;;;;8.20;3.90;;;;;;;16.52;96.84;97179.50;5163224;23;20571;-88
2023/09/21 01:41:06;;;;;;;6.50;4.40;;;;;;;16.51;98.83;97177.84;5137542;23;20592;-87
2023/09/21 01:43:11;;;;;;;5.53;3.90;;;;;;;16.52;97.85;97179.50;5163316;23;20612;-88
2023/09/21 01:45:14;;;;;;;4.73;3.70;;;;;;;16.50;98.92;97174.56;5163851;23;20645;-87
2023/09/21 01:47:18;;;;;;;4.90;3.77;;;;;;;16.52;96.78;97174.25;5163414;23;21086;-88
2023/09/21 01:49:21;;;;;;;4.17;3.63;;;;;;;16.52;97.52;97171.63;5163749;23;20587;-88
2023/09/21 01:51:25;;;;;;;4.70;3.80;;;;;;;16.53;96.85;97173.25;5138001;23;20938;-88
2023/09/21 01:53:28;;;;;;;5.40;4.17;;;;;;;16.53;99.16;97169.78;5163826;23;21117;-88
2023/09/21 01:55:32;;;;;;;5.50;4.03;;;;;;;16.52;98.08;97168.97;5163668;23;20604;-87
2023/09/21 01:57:36;;;;;;;5.93;3.70;;;;;;;16.52;97.63;97163.72;5162222;23;20930;-88
2023/09/21 01:59:40;;;;;;;4.23;3.40;;;;;;;16.51;98.93;97164.69;5138508;23;20911;-88
2023/09/21 02:01:45;;;;;;;4.60;3.90;;;;;;;16.51;97.59;97158.63;5163554;23;20564;-88
2023/09/21 02:03:47;;;;;;;6.90;4.20;;;;;;;16.50;99.32;97158.78;5138388;23;20692;-88
2023/09/21 02:05:50;;;;;;;5.37;3.60;;;;;;;16.49;98.71;97157.94;5162944;23;20614;-88
2023/09/21 02:07:54;;;;;;;4.80;3.97;;;;;;;16.50;99.31;97159.59;5164090;23;20595;-88
2023/09/21 02:09:58;;;;;;;5.17;3.97;;;;;;;16.50;98.04;97160.41;5165188;23;20572;-88
2023/09/21 02:12:01;;;;;;;5.07;3.80;;;;;;;16.50;99.37;97155.13;5165169;23;20564;-88
2023/09/21 02:14:08;;;;;;;4.80;4.00;;;;;;;16.50;99.26;97155.13;5164512;23;20642;-88
2023/09/21 02:16:14;;;;;;;5.57;4.17;;;;;;;16.49;98.72;97151.84;5138827;23;20728;-87
2023/09/21 02:18:19;;;;;;;5.13;4.07;;;;;;;16.48;98.07;97143.16;5166573;22;20561;-88
2023/09/21 02:20:23;;;;;;;5.40;4.17;;;;;;;16.51;98.44;97148.91;5164882;23;20587;-88
2023/09/21 02:22:27;;;;;;;6.67;4.23;;;;;;;16.53;99.29;97143.47;5189205;22;20566;-88
2023/09/21 02:24:30;;;;;;;5.77;4.10;;;;;;;16.53;99.13;97143.47;5138530;23;21138;-88
2023/09/21 02:26:37;;;;;;;6.37;4.10;;;;;;;16.51;97.97;97141.00;5164334;23;20598;-87
2023/09/21 02:28:40;;;;;;;5.70;4.10;;;;;;;16.51;98.36;97146.25;5138887;23;20702;-87
2023/09/21 02:30:47;;;;;;;7.23;4.10;;;;;;;16.51;98.64;97141.00;5164211;23;20626;-88
2023/09/21 02:32:52;;;;;;;5.20;4.17;;;;;;;16.52;99.19;97141.81;5164362;23;20624;-88
2023/09/21 02:34:56;;;;;;;5.20;3.93;;;;;;;16.50;97.46;97138.53;5166266;22;20674;-87
2023/09/21 02:37:01;;;;;;;6.00;4.30;;;;;;;16.51;98.39;97138.38;5139286;23;20573;-87
2023/09/21 02:39:08;;;;;;;7.47;4.30;;;;;;;16.50;97.66;97133.25;5139846;23;20645;-88
2023/09/21 02:41:11;;;;;;;6.60;4.50;;;;;;;16.50;98.74;97127.19;5164577;23;21188;-88
2023/09/21 02:43:15;;;;;;;5.77;4.00;;;;;;;16.47;99.84;97122.25;5138803;23;20997;-88
2023/09/21 02:45:20;;;;;;;5.03;3.90;;;;;;;16.43;97.48;97121.72;5163345;23;21139;-88
2023/09/21 02:47:24;;;;;;;5.43;3.97;;;;;;;16.41;97.57;97123.72;5164134;23;20588;-88
2023/09/21 02:49:30;;;;;;;4.40;3.97;;;;;;;16.39;99.35;97116.97;5163548;23;20577;-87
2023/09/21 02:51:33;;;;;;;5.77;4.00;;;;;;;16.40;98.21;97121.25;5137895;23;20925;-87
2023/09/21 02:53:36;;;;;;;4.43;3.70;;;;;;;16.40;97.92;97115.97;5163662;23;20679;-87
2023/09/21 02:55:42;;;;;;;4.80;3.77;;;;;;;16.40;98.24;97115.97;5138623;23;20613;-88
2023/09/21 02:57:45;;;;;;;4.73;3.80;;;;;;;16.38;100.00;97110.06;5162843;23;20620;-87
2023/09/21 02:59:48;;;;;;;5.13;3.90;;;;;;;16.40;98.71;97108.09;5164067;23;20682;-88
2023/09/21 03:01:54;;;;;;;4.93;4.30;;;;;;;16.44;98.13;97109.41;5137660;23;20596;-88
2023/09/21 03:03:59;;;;;;;4.77;4.03;;;;;;;16.45;100.00;97111.03;5163625;23;20972;-87
2023/09/21 03:06:03;;;;;;;4.53;3.40;;;;;;;16.45;98.91;97108.41;5138704;23;20589;-88
2023/09/21 03:08:09;;;;;;;5.10;4.17;;;;;;;16.45;100.00;97105.78;5163592;23;20577;-88
2023/09/21 03:10:11;;;;;;;5.40;4.17;;;;;;;16.45;100.00;97103.13;5164183;23;21102;-88
2023/09/21 03:12:16;;;;;;;4.90;3.90;;;;;;;16.42;100.00;97108.72;5163373;23;20572;-88
2023/09/21 03:14:20;;;;;;;6.30;5.37;;;;;;;16.40;99.45;97103.63;5137570;23;20932;-88
2023/09/21 03:16:23;;;;;;;5.30;4.10;;;;;;;16.41;100.00;97099.22;5136801;23;20950;-88
2023/09/21 03:18:25;;;;;;;5.00;4.20;;;;;;;16.41;100.00;97105.28;5163469;23;20920;-88
2023/09/21 03:20:32;;;;;;;7.03;3.90;;;;;;;16.40;100.00;97110.72;5163734;23;20603;-88
2023/09/21 03:22:34;;;;;;;4.67;4.07;;;;;;;16.39;99.14;97103.81;5163527;23;20984;-87
2023/09/21 03:24:39;;;;;;;6.30;4.50;;;;;;;16.42;100.00;97104.31;5163055;23;20619;-87
2023/09/21 03:26:43;;;;;;;6.87;3.50;;;;;;;16.44;98.79;97093.63;5163043;23;20570;-88
2023/09/21 03:28:49;;;;;;;5.70;4.13;;;;;;;16.46;100.00;97096.91;5163526;23;20593;-87
2023/09/21 03:30:56;;;;;;;5.00;3.30;;;;;;;16.46;99.85;97092.44;5162765;23;20688;-88
2023/09/21 03:32:59;;;;;;;5.30;3.77;;;;;;;16.46;98.64;97089.81;5161310;23;20949;-88
2023/09/21 03:35:02;;;;;;;5.20;3.87;;;;;;;16.47;98.55;97093.28;5163211;23;20576;-87
2023/09/21 03:37:07;;;;;;;4.50;4.10;;;;;;;16.46;100.00;97091.63;5163308;23;20691;-91
2023/09/21 03:39:10;;;;;;;6.00;3.70;;;;;;;16.44;100.00;97081.28;5166023;22;20607;-91
2023/09/21 03:41:15;;;;;;;4.63;4.13;;;;;;;16.47;100.00;97085.41;5138741;23;20581;-92
2023/09/21 03:43:21;;;;;;;4.47;3.93;;;;;;;16.47;99.48;97090.66;5164888;23;20687;-91
2023/09/21 03:45:25;;;;;;;6.20;4.40;;;;;;;16.46;100.00;97087.19;5163469;23;20638;-91
2023/09/21 03:47:27;;;;;;;5.50;3.80;;;;;;;16.47;100.00;97083.56;5163688;23;20575;-90
2023/09/21 03:49:34;;;;;;;6.93;4.10;;;;;;;16.48;100.00;97084.38;5162688;23;20565;-91
2023/09/21 03:51:38;;;;;;;7.90;4.13;;;;;;;16.51;99.94;97079.63;5139068;23;20581;-91
2023/09/21 03:53:42;;;;;;;4.10;3.70;;;;;;;16.53;100.00;97070.56;5139089;23;21026;-91
2023/09/21 03:55:46;;;;;;;6.43;4.10;;;;;;;16.54;99.33;97072.22;5137045;23;21110;-91
2023/09/21 03:57:50;;;;;;;5.47;4.00;;;;;;;16.55;100.00;97060.72;5138942;23;20601;-92
2023/09/21 03:59:53;;;;;;;6.10;4.50;;;;;;;16.55;100.00;97065.97;5139597;23;20624;-91
2023/09/21 04:01:56;;;;;;;6.80;4.20;;;;;;;16.57;99.81;97061.34;5164132;23;20585;-91
2023/09/21 04:04:05;;;;;;;4.63;4.23;;;;;;;16.58;99.79;97049.84;5139072;23;20606;-90
2023/09/21 04:06:09;;;;;;;4.10;3.70;;;;;;;16.57;98.96;97053.47;5163843;23;21156;-91
2023/09/21 04:08:12;;;;;;;4.67;4.20;;;;;;;16.59;99.38;97050.66;5139760;23;20586;-92
2023/09/21 04:10:17;;;;;;;4.70;3.80;;;;;;;16.61;100.00;97046.88;5166494;22;20584;-91
2023/09/21 04:12:20;;;;;;;4.77;3.77;;;;;;;16.61;99.75;97046.88;5163619;23;20572;-92
2023/09/21 04:14:22;;;;;;;5.13;4.20;;;;;;;16.62;100.00;97053.78;5139476;23;20613;-91
2023/09/21 04:16:26;;;;;;;5.17;4.30;;;;;;;16.62;100.00;97056.41;5163366;22;20583;-91
2023/09/21 04:18:30;;;;;;;6.03;4.50;;;;;;;16.63;99.62;97055.44;5139455;23;20605;-91
2023/09/21 04:20:34;;;;;;;6.43;4.40;;;;;;;16.63;100.00;97065.97;5164620;23;20665;-91
2023/09/21 04:22:39;;;;;;;5.00;4.13;;;;;;;16.65;99.98;97063.16;5139464;23;20574;-91
2023/09/21 04:24:42;;;;;;;4.63;4.10;;;;;;;16.65;100.00;97069.22;5139247;23;21095;-91
2023/09/21 04:26:47;;;;;;;5.17;4.57;;;;;;;16.63;100.00;97065.97;5164629;23;20583;-91
2023/09/21 04:28:50;;;;;;;5.57;4.73;;;;;;;16.63;100.00;97059.88;5163285;23;20639;-92
2023/09/21 04:30:55;;;;;;;5.03;3.93;;;;;;;16.62;100.00;97053.78;5163577;23;20579;-90
2023/09/21 04:32:59;;;;;;;5.20;4.37;;;;;;;16.63;100.00;97058.06;5165667;22;20630;-91
2023/09/21 04:35:05;;;;;;;5.43;4.23;;;;;;;16.64;100.00;97061.50;5138495;23;20577;-91
2023/09/21 04:37:09;;;;;;;6.30;4.80;;;;;;;16.64;100.00;97049.19;5163930;23;20580;-91
2023/09/21 04:39:14;;;;;;;5.23;3.57;;;;;;;16.65;100.00;97045.53;5164736;23;20561;-91
2023/09/21 04:41:18;;;;;;;6.37;4.30;;;;;;;16.66;100.00;97049.00;5139088;23;20659;-92
2023/09/21 04:43:22;;;;;;;9.00;4.80;;;;;;;16.63;100.00;97052.78;5164188;23;20918;-91
2023/09/21 04:45:26;;;;;;;5.23;4.03;;;;;;;16.62;100.00;97047.69;5163006;23;20711;-91
2023/09/21 04:47:34;;;;;;;6.07;4.50;;;;;;;16.61;100.00;97060.03;5163914;23;20576;-91
2023/09/21 04:49:38;;;;;;;7.10;4.87;;;;;;;16.64;100.00;97057.09;5139645;23;20991;-91
2023/09/21 04:51:41;;;;;;;6.70;4.30;;;;;;;16.68;100.00;97062.81;5138124;23;20625;-91
2023/09/21 04:53:45;;;;;;;5.90;4.63;;;;;;;16.70;100.00;97061.69;5138764;23;20624;-91
2023/09/21 04:55:49;;;;;;;6.00;4.87;;;;;;;16.73;100.00;97060.50;5137284;23;20579;-91
2023/09/21 04:57:53;;;;;;;8.07;5.43;;;;;;;16.73;100.00;97056.09;5163502;23;20588;-91
2023/09/21 04:59:58;;;;;;;7.40;4.80;;;;;;;16.74;100.00;97057.69;5138708;23;21131;-92
2023/09/21 05:02:01;;;;;;;6.77;4.17;;;;;;;16.75;100.00;97051.47;5163610;23;20599;-91
2023/09/21 05:04:05;;;;;;;5.23;3.80;;;;;;;16.75;100.00;97055.91;5139584;23;20578;-91
2023/09/21 05:06:10;;;;;;;5.60;4.60;;;;;;;16.74;100.00;97052.44;5139350;23;20585;-92
2023/09/21 05:08:13;;;;;;;9.67;7.17;;;;;;;16.76;100.00;97053.06;5163127;23;21041;-91
2023/09/21 05:10:16;;;;;;;8.70;5.27;;;;;;;16.78;100.00;97050.28;5139287;23;20676;-90
2023/09/21 05:12:20;;;;;;;5.60;4.93;;;;;;;16.77;100.00;97054.72;5165847;22;20614;-92
2023/09/21 05:14:24;;;;;;;6.33;4.50;;;;;;;16.73;100.00;97048.19;5139144;23;20588;-91
2023/09/21 05:16:28;;;;;;;4.90;4.10;;;;;;;16.74;100.00;97051.63;5138289;23;21116;-91
2023/09/21 05:18:32;;;;;;;6.97;4.70;;;;;;;16.74;100.00;97051.63;5138548;23;21185;-91
2023/09/21 05:20:34;;;;;;;13.63;5.23;;;;;;;16.74;100.00;97049.81;5164626;23;20577;-92
2023/09/21 05:22:39;;;;;;;7.73;4.97;;;;;;;16.78;100.00;97053.75;5139049;23;20615;-92
2023/09/21 05:24:43;;;;;;;6.60;5.13;;;;;;;16.79;100.00;97052.75;5137835;23;20653;-92
2023/09/21 05:26:47;;;;;;;6.33;4.53;;;;;;;16.81;100.00;97057.84;5164682;23;20580;-91
2023/09/21 05:28:50;;;;;;;10.03;4.73;;;;;;;16.84;100.00;97058.34;5163755;23;20583;-91
2023/09/21 05:30:54;;;;;;;8.20;5.00;;;;;;;16.86;100.00;97051.09;5163090;23;20574;-92
2023/09/21 05:33:00;;;;;;;6.70;4.80;;;;;;;16.87;100.00;97057.16;5138410;23;20616;-91
2023/09/21 05:35:05;;;;;;;8.27;4.90;;;;;;;16.89;100.00;97061.28;5164556;23;21113;-92
2023/09/21 05:37:08;;;;;;;5.70;4.90;;;;;;;16.92;100.00;97065.41;5189780;22;20618;-91
2023/09/21 05:39:11;;;;;;;10.73;5.43;;;;;;;16.97;100.00;97060.47;5163438;23;20631;-92
2023/09/21 05:41:15;;;;;;;6.30;4.73;;;;;;;16.98;100.00;97058.47;5164143;22;20631;-91
2023/09/21 05:43:18;;;;;;;5.30;4.57;;;;;;;17.03;100.00;97048.25;5160546;23;20615;-92
2023/09/21 05:45:21;;;;;;;6.30;5.27;;;;;;;17.18;100.00;97045.72;5167298;22;20607;-94
2023/09/21 05:47:25;;;;;;;7.10;4.97;;;;;;;17.28;100.00;97051.66;5162151;23;20573;-95
2023/09/21 05:49:32;;;;;;;5.47;4.80;;;;;;;17.33;99.93;97044.03;5165369;23;21161;-95
2023/09/21 05:51:35;;;;;;;6.40;5.03;;;;;;;17.41;99.05;97047.47;5140280;23;20615;-95
2023/09/21 05:53:39;;;;;;;5.57;4.80;;;;;;;17.53;98.61;97046.91;5140900;23;20999;-95
2023/09/21 05:55:43;;;;;;;6.17;5.00;;;;;;;17.76;98.44;97050.41;5141281;23;21103;-93
2023/09/21 05:57:47;;;;;;;8.37;5.13;;;;;;;17.93;98.52;97051.94;5141488;23;20606;-95
2023/09/21 05:59:52;;;;;;;9.27;5.10;;;;;;;18.07;97.17;97057.31;5139222;23;21171;-95
2023/09/21 06:01:55;;;;;;;6.40;4.67;;;;;;;18.11;96.98;97057.75;5141339;23;20567;-94
2023/09/21 06:03:59;;;;;;;6.03;5.07;;;;;;;18.12;96.33;97060.22;5167201;23;20588;-95
2023/09/21 06:06:06;;;;;;;9.60;5.07;;;;;;;18.13;97.19;97055.78;5162422;22;20637;-94
2023/09/21 06:08:10;;;;;;;6.63;4.70;;;;;;;18.08;96.52;97048.38;5138178;23;20586;-92
2023/09/21 06:10:13;;;;;;;6.30;4.70;;;;;;;18.07;96.04;97045.91;5162581;23;20620;-92
2023/09/21 06:12:16;;;;;;;5.30;4.30;;;;;;;18.05;97.09;97042.63;5163336;23;20635;-93
2023/09/21 06:14:20;;;;;;;5.83;4.40;;;;;;;18.04;97.17;97041.81;5139372;23;20649;-93
2023/09/21 06:16:23;;;;;;;6.63;4.30;;;;;;;18.04;97.48;97036.53;5165959;22;20579;-92
2023/09/21 06:18:27;;;;;;;5.73;4.87;;;;;;;18.03;97.28;97040.16;5141187;23;20669;-94
2023/09/21 06:20:29;;;;;;;6.97;4.63;;;;;;;18.04;97.16;97043.63;5140275;23;20589;-93
2023/09/21 06:22:40;;;;;;;4.83;4.33;;;;;;;18.02;97.37;97041.16;5139775;23;20587;-94
2023/09/21 06:24:44;;;;;;;5.77;4.50;;;;;;;18.06;97.83;97041.66;5141202;23;20579;-93
2023/09/21 06:26:47;;;;;;;6.10;5.40;;;;;;;18.07;97.88;97030.06;5140931;23;20634;-92
2023/09/21 06:28:51;;;;;;;6.53;4.57;;;;;;;18.06;98.30;97031.09;5140355;23;20604;-94
2023/09/21 06:30:53;;;;;;;7.33;4.67;;;;;;;18.09;98.70;97039.47;5139747;23;20579;-92
2023/09/21 06:32:56;;;;;;;8.47;4.70;;;;;;;18.12;99.26;97035.66;5165639;23;20559;-93
2023/09/21 06:35:00;;;;;;;5.70;4.50;;;;;;;18.17;99.38;97036.78;5166122;23;21135;-92
2023/09/21 06:37:02;;;;;;;6.80;4.70;;;;;;;18.29;99.19;97042.47;5165463;22;20913;-94
2023/09/21 06:39:08;;;;;;;5.90;4.03;;;;;;;18.44;98.76;97044.97;5138487;23;20654;-93
2023/09/21 06:41:12;;;;;;;7.03;4.67;;;;;;;18.46;98.55;97032.44;5163862;23;20576;-93
2023/09/21 06:43:15;;;;;;;6.93;4.77;;;;;;;18.46;98.07;97032.44;5139011;23;20630;-93
2023/09/21 06:45:18;;;;;;;5.73;5.00;;;;;;;18.40;98.24;97021.72;5164312;23;20640;-93
2023/09/21 06:47:22;;;;;;;5.80;4.73;;;;;;;18.36;97.57;97024.91;5165789;23;20570;-93
2023/09/21 06:49:26;;;;;;;8.20;6.10;;;;;;;18.37;98.75;97023.91;5167558;22;20655;-91
2023/09/21 06:51:30;;;;;;;8.20;5.10;;;;;;;18.37;98.16;97018.63;5163069;23;20574;-93
2023/09/21 06:53:33;;;;;;;7.00;4.83;;;;;;;18.36;98.53;97024.91;5163107;23;20570;-92
2023/09/21 06:55:37;;;;;;;5.70;4.50;;;;;;;18.37;98.75;97026.56;5163226;23;20634;-93
2023/09/21 06:57:41;;;;;;;5.53;4.90;;;;;;;18.37;98.86;97023.91;5164896;23;20621;-91
2023/09/21 06:59:43;;;;;;;7.60;4.70;;;;;;;18.40;98.49;97020.94;5164744;23;20674;-92
2023/09/21 07:01:46;;;;;;;7.13;4.57;;;;;;;18.42;97.10;97015.28;5139274;23;20579;-92
2023/09/21 07:03:49;;;;;;;5.33;4.37;;;;;;;18.51;97.92;97022.13;5165553;23;21132;-93
2023/09/21 07:05:53;;;;;;;8.87;5.30;;;;;;;18.56;97.02;97026.88;5164492;23;20932;-93
2023/09/21 07:07:59;;;;;;;5.97;5.30;;;;;;;18.61;96.46;97028.00;5164737;23;20589;-93
2023/09/21 07:10:05;;;;;;;7.80;5.30;;;;;;;18.65;96.49;97020.53;5166006;23;20986;-93
2023/09/21 07:12:11;;;;;;;7.33;4.97;;;;;;;18.72;97.16;97005.56;5164775;23;20614;-92
2023/09/21 07:14:14;;;;;;;7.40;5.17;;;;;;;18.75;96.51;97011.34;5140512;23;20586;-93
2023/09/21 07:16:18;;;;;;;7.57;4.90;;;;;;;18.75;96.96;97008.69;5140023;23;21125;-94
2023/09/21 07:18:21;;;;;;;6.27;5.40;;;;;;;18.81;96.56;97004.47;5165871;23;20660;-93
2023/09/21 07:20:26;;;;;;;6.23;4.87;;;;;;;18.87;96.75;97003.75;5165642;23;20572;-92
2023/09/21 07:22:29;;;;;;;5.87;4.93;;;;;;;18.88;95.87;97002.78;5139486;23;21009;-93
2023/09/21 07:24:32;;;;;;;7.10;4.93;;;;;;;18.91;96.18;96996.13;5139550;23;21096;-94
2023/09/21 07:26:37;;;;;;;7.00;5.43;;;;;;;18.96;96.60;97000.88;5139191;23;20957;-93
2023/09/21 07:28:41;;;;;;;6.43;4.70;;;;;;;19.03;96.68;97000.00;5165796;23;20582;-94
2023/09/21 07:30:45;;;;;;;6.90;5.60;;;;;;;19.08;96.92;97007.38;5140909;23;20583;-92
2023/09/21 07:32:50;;;;;;;7.03;4.87;;;;;;;19.11;96.54;97006.97;5139663;23;20588;-93
2023/09/21 07:34:53;;;;;;;7.03;5.30;;;;;;;19.14;95.79;97009.25;5165412;23;20562;-92
2023/09/21 07:36:56;;;;;;;8.00;4.83;;;;;;;19.19;96.61;97009.53;5140260;23;21076;-93
2023/09/21 07:38:59;;;;;;;7.20;5.00;;;;;;;19.25;95.50;97008.81;5164444;23;20622;-93
2023/09/21 07:41:06;;;;;;;8.80;4.70;;;;;;;19.29;95.97;97010.91;5164311;23;20606;-94
2023/09/21 07:43:10;;;;;;;6.30;4.67;;;;;;;19.37;95.58;97014.25;5139355;23;21057;-93
2023/09/21 07:45:16;;;;;;;8.40;4.30;;;;;;;19.43;95.46;97017.97;5164551;23;20997;-93
2023/09/21 07:47:21;;;;;;;5.43;4.70;;;;;;;19.52;94.74;97011.59;5164468;23;20616;-90
2023/09/21 07:49:25;;;;;;;5.50;4.53;;;;;;;19.58;93.36;97006.38;5164254;23;20564;-92
2023/09/21 07:51:29;;;;;;;6.20;4.93;;;;;;;19.60;94.45;97001.69;5140075;23;20923;-93
2023/09/21 07:53:32;;;;;;;10.40;5.00;;;;;;;19.68;94.69;97004.25;5190398;22;20579;-90
2023/09/21 07:55:34;;;;;;;6.70;5.23;;;;;;;19.79;93.74;97006.41;5164410;23;20560;-92
2023/09/21 07:57:39;;;;;;;8.83;5.10;;;;;;;19.96;94.49;97010.47;5140293;23;20597;-94
2023/09/21 07:59:43;;;;;;;5.10;4.20;;;;;;;20.19;93.95;97008.44;5140376;23;20696;-93
2023/09/21 08:01:48;;;;;;;6.53;4.40;;;;;;;20.31;94.67;97006.91;5139832;23;20678;-93
2023/09/21 08:03:52;;;;;;;5.30;4.73;;;;;;;20.44;93.65;97002.56;5139974;23;20619;-90
2023/09/21 08:05:55;;;;;;;9.00;4.40;;;;;;;20.57;93.31;97002.66;5163976;23;20572;-94
2023/09/21 08:07:59;;;;;;;5.40;4.60;;;;;;;20.78;93.59;96998.16;5138911;23;20714;-93
2023/09/21 08:10:04;;;;;;;5.70;4.50;;;;;;;21.27;93.09;97004.16;5139671;23;20570;-92
2023/09/21 08:12:09;;;;;;;5.00;4.30;;;;;;;21.79;91.02;97003.38;5139677;23;20573;-93
2023/09/21 08:14:12;;;;;;;4.70;3.73;;;;;;;22.17;90.59;97001.81;5164757;23;20581;-92
2023/09/21 08:16:15;;;;;;;3.90;3.20;;;;;;;22.34;88.24;96993.25;5137436;23;20577;-92
2023/09/21 08:18:20;;;;;;;5.40;3.83;;;;;;;22.49;86.28;96988.56;5140182;23;20590;-93
2023/09/21 08:20:24;;;;;;;4.47;3.60;;;;;;;22.49;85.76;96980.59;5140351;23;20563;-94
2023/09/21 08:22:27;;;;;;;5.03;4.07;;;;;;;22.37;84.99;96974.25;5139834;23;21057;-93
2023/09/21 08:24:31;;;;;;;9.03;4.53;;;;;;;22.25;85.31;96966.09;5163934;23;21141;-93
2023/09/21 08:26:35;;;;;;;4.73;3.83;;;;;;;22.23;86.39;96961.97;5163258;23;20605;-93
2023/09/21 08:28:38;;;;;;;4.60;3.83;;;;;;;22.25;87.05;96962.59;5165903;22;20581;-92
2023/09/21 08:30:42;;;;;;;5.40;3.50;;;;;;;22.31;88.65;96962.59;5139494;23;20641;-94
2023/09/21 08:32:45;;;;;;;3.83;3.47;;;;;;;22.34;89.01;96967.53;5138175;23;20580;-92
2023/09/21 08:34:50;;;;;;;5.70;3.83;;;;;;;22.35;88.19;96963.81;5163908;23;20575;-94
2023/09/21 08:36:53;;;;;;;6.03;3.77;;;;;;;22.42;88.54;96959.31;5139886;23;20582;-93
2023/09/21 08:38:56;;;;;;;3.80;3.40;;;;;;;22.45;88.31;96961.56;5164750;23;20647;-93
2023/09/21 08:41:00;;;;;;;4.67;3.90;;;;;;;22.50;88.33;96963.63;5140270;23;20602;-93
2023/09/21 08:43:04;;;;;;;4.97;4.00;;;;;;;22.52;87.90;96957.09;5139624;23;21003;-93
2023/09/21 08:45:09;;;;;;;4.90;4.40;;;;;;;22.54;87.85;96955.03;5139182;23;20591;-94
2023/09/21 08:47:14;;;;;;;6.23;4.30;;;;;;;22.60;88.38;96954.22;5163870;23;21178;-93
2023/09/21 08:49:37;;;;;;;7.63;4.40;;;;;;;22.89;87.69;96961.72;5164083;23;20924;-94
2023/09/21 08:51:42;;;;;;;5.30;3.90;;;;;;;23.09;87.28;96959.84;5139320;23;20689;-93
2023/09/21 08:53:50;;;;;;;4.30;3.43;;;;;;;23.29;86.13;96962.25;5164956;23;20581;-93
2023/09/21 08:55:58;;;;;;;5.40;3.23;;;;;;;23.62;83.58;96956.75;5163725;23;20583;-92
2023/09/21 09:00:59;;;;;;;7.10;3.00;;;;;;;23.64;79.55;96952.09;5141258;23;21005;-93
2023/09/21 09:03:03;;;;;;;3.90;3.10;;;;;;;23.62;80.29;96951.44;5138922;23;20581;-92
2023/09/21 09:05:08;;;;;;;3.60;3.10;;;;;;;23.61;79.03;96942.63;5164930;23;20614;-94
2023/09/21 09:07:13;;;;;;;3.77;3.23;;;;;;;23.65;79.54;96941.22;5164880;23;20618;-94
2023/09/21 09:09:19;;;;;;;10.67;3.53;;;;;;;23.69;79.41;96950.41;5139521;23;20592;-93
2023/09/21 09:11:45;;;;;;;4.60;3.07;;;;;;;23.69;80.64;96945.06;5165864;22;20587;-92
2023/09/21 09:13:47;;;;;;;4.20;3.03;;;;;;;23.70;79.83;96938.72;5132772;23;20678;-92
2023/09/21 09:15:50;;;;;;;5.53;3.17;;;;;;;23.72;81.17;96936.66;5137949;23;20608;-93
2023/09/21 09:18:01;;;;;;;3.63;3.20;;;;;;;23.77;81.38;96942.19;5166285;23;20580;-94
2023/09/21 09:20:06;;;;;;;4.40;3.63;;;;;;;23.85;81.71;96944.59;5141418;23;20572;-93
2023/09/21 09:22:11;;;;;;;3.50;2.83;;;;;;;23.90;79.93;96944.75;5141100;23;20576;-94
2023/09/21 09:24:16;;;;;;;4.03;3.23;;;;;;;23.96;80.16;96949.22;5141247;23;20593;-93
2023/09/21 09:26:20;;;;;;;4.23;3.33;;;;;;;24.00;79.76;96947.78;5190021;22;20559;-94
2023/09/21 09:28:23;;;;;;;3.00;2.70;;;;;;;24.10;79.88;96953.41;5166256;23;20647;-94
2023/09/21 09:30:25;;;;;;;4.77;3.30;;;;;;;24.28;79.30;96947.13;5166722;22;21115;-93
2023/09/21 09:32:37;;;;;;;3.80;3.23;;;;;;;24.71;78.53;96956.81;5165471;23;20576;-94
2023/09/21 09:34:39;;;;;;;3.73;3.00;;;;;;;25.10;76.54;96951.13;5141455;23;20579;-93
2023/09/21 09:36:43;;;;;;;4.47;2.73;;;;;;;25.39;76.22;96948.50;5163152;23;20582;-94
2023/09/21 09:38:47;;;;;;;3.50;3.00;;;;;;;25.61;76.31;96945.13;5141148;23;20647;-92
2023/09/21 09:40:52;;;;;;;3.23;2.93;;;;;;;25.75;75.13;96941.28;5140635;23;20650;-94
2023/09/21 09:42:58;;;;;;;4.50;2.90;;;;;;;25.92;73.88;96936.09;5166152;23;20583;-94
2023/09/21 09:45:03;;;;;;;4.43;2.80;;;;;;;26.02;72.03;96923.81;5165411;23;20608;-94
2023/09/21 09:47:09;;;;;;;3.10;2.70;;;;;;;25.99;71.87;96931.50;5165347;23;20647;-93